createdAt,value
2017-05-22T00:00:15.670Z,1005.08
2017-05-22T00:00:40.515Z,1005.20
2017-05-22T00:01:56.704Z,1005.23
2017-05-22T00:02:21.694Z,1005.02
2017-05-22T00:03:49.113Z,1005.11
2017-05-22T00:04:14.179Z,1005.27
2017-05-22T00:04:36.212Z,1005.17
2017-05-22T00:05:01.203Z,1005.15
2017-05-22T00:05:26.281Z,1005.10
2017-05-22T00:06:35.528Z,1005.19
2017-05-22T00:07:00.251Z,1005.13
2017-05-22T00:07:26.845Z,1005.03
2017-05-22T00:07:49.043Z,1005.14
2017-05-22T00:08:15.561Z,1005.17
2017-05-22T00:08:37.320Z,1005.12
2017-05-22T00:09:02.245Z,1005.06
2017-05-22T00:09:32.372Z,1005.23
2017-05-22T00:10:06.561Z,1005.19
2017-05-22T00:11:50.439Z,1005.00
2017-05-22T00:12:12.299Z,1005.03
2017-05-22T00:12:40.608Z,1005.07
2017-05-22T00:13:38.942Z,1005.09
2017-05-22T00:14:00.646Z,1005.16
2017-05-22T00:14:48.901Z,1005.14
2017-05-22T00:15:13.962Z,1005.11
2017-05-22T00:15:35.669Z,1004.97
2017-05-22T00:16:04.958Z,1004.95
2017-05-22T00:16:26.805Z,1004.99
2017-05-22T00:16:53.679Z,1005.05
2017-05-22T00:17:18.492Z,1005.15
2017-05-22T00:17:43.605Z,1005.07
2017-05-22T00:18:08.126Z,1005.09
2017-05-22T00:18:30.296Z,1005.01
2017-05-22T00:19:57.803Z,1005.05
2017-05-22T00:20:24.318Z,1004.99
2017-05-22T00:20:53.689Z,1004.88
2017-05-22T00:21:18.243Z,1005.05
2017-05-22T00:22:11.353Z,1004.94
2017-05-22T00:22:41.003Z,1004.93
2017-05-22T00:23:02.795Z,1005.13
2017-05-22T00:23:24.537Z,1004.93
2017-05-22T00:23:49.177Z,1004.89
2017-05-22T00:24:13.821Z,1004.88
2017-05-22T00:24:40.712Z,1004.99
2017-05-22T00:25:17.338Z,1004.92
2017-05-22T00:25:46.704Z,1004.91
2017-05-22T00:26:13.206Z,1005.10
2017-05-22T00:26:42.685Z,1004.95
2017-05-22T00:27:36.432Z,1004.98
2017-05-22T00:27:58.614Z,1004.94
2017-05-22T00:28:20.673Z,1004.87
2017-05-22T00:28:45.726Z,1004.86
2017-05-22T00:29:12.369Z,1004.97
2017-05-22T00:29:39.179Z,1005.00
2017-05-22T00:30:12.235Z,1004.97
2017-05-22T00:30:33.972Z,1004.90
2017-05-22T00:30:56.025Z,1004.86
2017-05-22T00:32:22.233Z,1005.01
2017-05-22T00:32:44.015Z,1004.88
2017-05-22T00:33:08.660Z,1004.96
2017-05-22T00:33:32.873Z,1004.90
2017-05-22T00:34:07.138Z,1005.01
2017-05-22T00:34:33.873Z,1004.94
2017-05-22T00:35:00.395Z,1004.92
2017-05-22T00:35:53.503Z,1004.82
2017-05-22T00:36:20.028Z,1004.98
2017-05-22T00:36:46.607Z,1004.92
2017-05-22T00:37:18.960Z,1004.89
2017-05-22T00:37:43.578Z,1004.91
2017-05-22T00:38:42.809Z,1004.86
2017-05-22T00:39:36.474Z,1004.91
2017-05-22T00:40:01.604Z,1004.83
2017-05-22T00:40:23.938Z,1004.86
2017-05-22T00:40:57.870Z,1004.89
2017-05-22T00:41:52.159Z,1004.76
2017-05-22T00:42:13.949Z,1004.76
2017-05-22T00:43:43.067Z,1004.83
2017-05-22T00:44:12.168Z,1004.78
2017-05-22T00:44:37.325Z,1004.96
2017-05-22T00:45:08.621Z,1004.89
2017-05-22T00:45:39.671Z,1004.84
2017-05-22T00:46:09.379Z,1004.88
2017-05-22T00:46:43.458Z,1004.72
2017-05-22T00:47:14.737Z,1004.79
2017-05-22T00:47:36.493Z,1004.84
2017-05-22T00:47:58.460Z,1004.87
2017-05-22T00:48:23.386Z,1004.89
2017-05-22T00:49:11.882Z,1004.76
2017-05-22T00:49:36.691Z,1004.76
2017-05-22T00:50:37.728Z,1004.83
2017-05-22T00:51:07.054Z,1004.83
2017-05-22T00:51:28.894Z,1004.83
2017-05-22T00:51:50.622Z,1004.79
2017-05-22T00:52:18.112Z,1004.92
2017-05-22T00:52:44.744Z,1004.89
2017-05-22T00:53:09.357Z,1004.83
2017-05-22T00:55:02.927Z,1005.00
2017-05-22T00:55:34.186Z,1004.80
2017-05-22T00:55:56.025Z,1004.85
2017-05-22T00:56:17.731Z,1004.84
2017-05-22T00:57:08.746Z,1004.94
2017-05-22T00:57:57.691Z,1004.82
2017-05-22T00:58:24.509Z,1004.82
2017-05-22T00:59:20.266Z,1004.89
2017-05-22T01:00:12.034Z,1004.89
2017-05-22T01:00:43.799Z,1004.75
2017-05-22T01:01:15.962Z,1004.78
2017-05-22T01:02:23.270Z,1004.84
2017-05-22T01:02:45.053Z,1004.79
2017-05-22T01:03:06.832Z,1004.82
2017-05-22T01:03:28.767Z,1004.81
2017-05-22T01:03:53.533Z,1004.82
2017-05-22T01:04:18.366Z,1004.89
2017-05-22T01:04:40.302Z,1004.86
2017-05-22T01:05:11.683Z,1004.84
2017-05-22T01:05:33.503Z,1004.74
2017-05-22T01:06:00.091Z,1004.77
2017-05-22T01:06:21.869Z,1004.81
2017-05-22T01:06:43.672Z,1004.68
2017-05-22T01:07:32.195Z,1004.81
2017-05-22T01:08:50.077Z,1004.73
2017-05-22T01:09:11.826Z,1004.77
2017-05-22T01:09:38.367Z,1004.81
2017-05-22T01:10:03.510Z,1004.77
2017-05-22T01:10:32.757Z,1004.85
2017-05-22T01:11:04.106Z,1004.76
2017-05-22T01:11:31.661Z,1004.83
2017-05-22T01:12:49.524Z,1004.71
2017-05-22T01:13:39.344Z,1004.75
2017-05-22T01:14:03.675Z,1004.64
2017-05-22T01:14:25.520Z,1004.71
2017-05-22T01:14:53.660Z,1004.81
2017-05-22T01:15:56.631Z,1004.74
2017-05-22T01:16:18.366Z,1004.80
2017-05-22T01:17:12.454Z,1004.76
2017-05-22T01:18:40.808Z,1004.64
2017-05-22T01:19:02.552Z,1004.67
2017-05-22T01:19:24.273Z,1004.59
2017-05-22T01:19:45.998Z,1004.62
2017-05-22T01:20:12.586Z,1004.66
2017-05-22T01:21:22.627Z,1004.74
2017-05-22T01:21:54.032Z,1004.70
2017-05-22T01:22:23.935Z,1004.62
2017-05-22T01:22:49.165Z,1004.68
2017-05-22T01:23:55.151Z,1004.82
2017-05-22T01:25:05.724Z,1004.73
2017-05-22T01:25:32.579Z,1004.68
2017-05-22T01:25:54.668Z,1004.70
2017-05-22T01:26:16.575Z,1004.70
2017-05-22T01:26:41.344Z,1004.54
2017-05-22T01:27:03.176Z,1004.68
2017-05-22T01:27:25.043Z,1004.73
2017-05-22T01:27:52.141Z,1004.69
2017-05-22T01:28:18.901Z,1004.63
2017-05-22T01:28:41.014Z,1004.66
2017-05-22T01:29:04.888Z,1004.66
2017-05-22T01:29:26.824Z,1004.62
2017-05-22T01:30:15.199Z,1004.70
2017-05-22T01:30:41.859Z,1004.61
2017-05-22T01:31:03.665Z,1004.65
2017-05-22T01:31:28.128Z,1004.60
2017-05-22T01:31:49.953Z,1004.66
2017-05-22T01:32:16.509Z,1004.65
2017-05-22T01:32:41.291Z,1004.64
2017-05-22T01:33:03.424Z,1004.63
2017-05-22T01:33:32.673Z,1004.64
2017-05-22T01:33:54.715Z,1004.76
2017-05-22T01:34:16.592Z,1004.70
2017-05-22T01:35:05.284Z,1004.70
2017-05-22T01:35:27.571Z,1004.72
2017-05-22T01:35:54.108Z,1004.75
2017-05-22T01:36:56.747Z,1004.63
2017-05-22T01:37:18.493Z,1004.61
2017-05-22T01:38:38.396Z,1004.54
2017-05-22T01:39:03.423Z,1004.65
2017-05-22T01:39:25.645Z,1004.59
2017-05-22T01:39:47.458Z,1004.54
2017-05-22T01:40:12.006Z,1004.73
2017-05-22T01:40:36.414Z,1004.55
2017-05-22T01:41:26.022Z,1004.52
2017-05-22T01:41:56.317Z,1004.58
2017-05-22T01:42:25.834Z,1004.64
2017-05-22T01:42:47.725Z,1004.55
2017-05-22T01:43:48.176Z,1004.57
2017-05-22T01:44:14.733Z,1004.53
2017-05-22T01:44:39.658Z,1004.49
2017-05-22T01:45:38.645Z,1004.63
2017-05-22T01:46:32.240Z,1004.47
2017-05-22T01:46:53.984Z,1004.46
2017-05-22T01:47:20.522Z,1004.47
2017-05-22T01:47:51.896Z,1004.46
2017-05-22T01:48:19.645Z,1004.54
2017-05-22T01:49:16.118Z,1004.49
2017-05-22T01:49:42.656Z,1004.52
2017-05-22T01:50:04.954Z,1004.50
2017-05-22T01:50:29.427Z,1004.42
2017-05-22T01:50:51.222Z,1004.46
2017-05-22T01:51:13.108Z,1004.57
2017-05-22T01:51:38.342Z,1004.45
2017-05-22T01:52:08.801Z,1004.49
2017-05-22T01:52:30.632Z,1004.61
2017-05-22T01:52:55.602Z,1004.46
2017-05-22T01:53:20.409Z,1004.48
2017-05-22T01:53:47.106Z,1004.53
2017-05-22T01:54:11.652Z,1004.39
2017-05-22T01:55:06.215Z,1004.49
2017-05-22T01:55:32.932Z,1004.49
2017-05-22T01:56:02.345Z,1004.55
2017-05-22T01:56:27.129Z,1004.48
2017-05-22T01:56:54.877Z,1004.46
2017-05-22T01:57:17.348Z,1004.41
2017-05-22T01:57:39.899Z,1004.55
2017-05-22T01:59:04.586Z,1004.47
2017-05-22T01:59:32.855Z,1004.52
2017-05-22T01:59:55.349Z,1004.45
2017-05-22T02:00:29.568Z,1004.34
2017-05-22T02:01:03.931Z,1004.41
2017-05-22T02:01:25.725Z,1004.52
2017-05-22T02:02:14.063Z,1004.44
2017-05-22T02:03:13.300Z,1004.38
2017-05-22T02:03:35.191Z,1004.41
2017-05-22T02:05:18.624Z,1004.31
2017-05-22T02:05:41.814Z,1004.32
2017-05-22T02:06:06.826Z,1004.36
2017-05-22T02:06:32.673Z,1004.22
2017-05-22T02:07:02.026Z,1004.29
2017-05-22T02:07:31.491Z,1004.56
2017-05-22T02:08:02.849Z,1004.40
2017-05-22T02:08:24.580Z,1004.23
2017-05-22T02:09:13.297Z,1004.28
2017-05-22T02:09:42.495Z,1004.33
2017-05-22T02:10:39.174Z,1004.37
2017-05-22T02:11:04.309Z,1004.24
2017-05-22T02:11:33.867Z,1004.41
2017-05-22T02:11:58.563Z,1004.36
2017-05-22T02:12:23.073Z,1004.25
2017-05-22T02:12:45.008Z,1004.21
2017-05-22T02:13:11.547Z,1004.28
2017-05-22T02:13:33.458Z,1004.28
2017-05-22T02:14:27.668Z,1004.23
2017-05-22T02:14:54.470Z,1004.29
2017-05-22T02:15:16.263Z,1004.31
2017-05-22T02:15:41.297Z,1004.30
2017-05-22T02:16:03.087Z,1004.37
2017-05-22T02:19:06.874Z,1004.30
2017-05-22T02:19:28.677Z,1004.30
2017-05-22T02:20:38.894Z,1004.24
2017-05-22T02:21:33.342Z,1004.32
2017-05-22T02:22:26.514Z,1004.23
2017-05-22T02:22:51.193Z,1004.26
2017-05-22T02:23:17.785Z,1004.27
2017-05-22T02:23:42.512Z,1004.26
2017-05-22T02:24:09.668Z,1004.18
2017-05-22T02:24:34.075Z,1004.16
2017-05-22T02:25:00.957Z,1004.23
2017-05-22T02:25:30.299Z,1004.25
2017-05-22T02:26:04.376Z,1004.29
2017-05-22T02:26:35.690Z,1004.26
2017-05-22T02:27:02.374Z,1004.41
2017-05-22T02:27:24.157Z,1004.30
2017-05-22T02:27:48.755Z,1004.33
2017-05-22T02:28:10.541Z,1004.28
2017-05-22T02:29:08.406Z,1004.23
2017-05-22T02:30:11.112Z,1004.23
2017-05-22T02:30:40.484Z,1004.43
2017-05-22T02:31:04.962Z,1004.25
2017-05-22T02:31:30.163Z,1004.38
2017-05-22T02:32:23.221Z,1004.29
2017-05-22T02:33:11.582Z,1004.39
2017-05-22T02:33:39.966Z,1004.24
2017-05-22T02:34:35.859Z,1004.22
2017-05-22T02:34:57.792Z,1004.35
2017-05-22T02:35:20.067Z,1004.21
2017-05-22T02:35:41.967Z,1004.17
2017-05-22T02:36:35.082Z,1004.23
2017-05-22T02:37:31.745Z,1004.26
2017-05-22T02:38:30.830Z,1004.12
2017-05-22T02:38:55.827Z,1004.15
2017-05-22T02:39:25.249Z,1004.11
2017-05-22T02:40:22.952Z,1004.30
2017-05-22T02:40:45.106Z,1004.38
2017-05-22T02:41:36.316Z,1004.30
2017-05-22T02:42:02.888Z,1004.26
2017-05-22T02:42:27.797Z,1004.13
2017-05-22T02:42:55.097Z,1004.20
2017-05-22T02:43:19.919Z,1004.30
2017-05-22T02:43:41.645Z,1004.17
2017-05-22T02:44:10.660Z,1004.08
2017-05-22T02:44:59.374Z,1004.20
2017-05-22T02:45:25.676Z,1004.21
2017-05-22T02:45:52.303Z,1004.22
2017-05-22T02:46:18.913Z,1004.31
2017-05-22T02:46:46.803Z,1004.14
2017-05-22T02:47:13.764Z,1004.27
2017-05-22T02:47:45.475Z,1004.34
2017-05-22T02:48:12.208Z,1004.21
2017-05-22T02:48:46.464Z,1004.14
2017-05-22T02:49:16.873Z,1004.27
2017-05-22T02:49:39.666Z,1004.32
2017-05-22T02:50:10.939Z,1004.42
2017-05-22T02:50:37.518Z,1004.16
2017-05-22T02:51:03.037Z,1004.12
2017-05-22T02:51:29.602Z,1004.18
2017-05-22T02:51:54.525Z,1004.20
2017-05-22T02:52:28.290Z,1004.11
2017-05-22T02:53:29.052Z,1004.21
2017-05-22T02:53:54.048Z,1004.18
2017-05-22T02:54:18.712Z,1004.11
2017-05-22T02:54:43.774Z,1004.09
2017-05-22T02:55:41.705Z,1004.17
2017-05-22T02:57:21.513Z,1004.19
2017-05-22T02:57:49.646Z,1004.15
2017-05-22T02:58:16.446Z,1004.27
2017-05-22T02:58:38.291Z,1004.24
2017-05-22T03:00:10.827Z,1004.14
2017-05-22T03:00:38.798Z,1004.02
2017-05-22T03:01:33.427Z,1004.28
2017-05-22T03:01:58.500Z,1004.13
2017-05-22T03:02:25.116Z,1004.10
2017-05-22T03:04:10.455Z,1004.33
2017-05-22T03:05:49.905Z,1004.15
2017-05-22T03:06:17.433Z,1004.25
2017-05-22T03:07:27.655Z,1004.26
2017-05-22T03:07:49.639Z,1004.36
2017-05-22T03:08:41.517Z,1004.09
2017-05-22T03:09:08.101Z,1004.19
2017-05-22T03:09:34.708Z,1004.08
2017-05-22T03:10:06.846Z,1004.17
2017-05-22T03:10:28.634Z,1004.03
2017-05-22T03:10:50.460Z,1004.05
2017-05-22T03:11:17.366Z,1004.20
2017-05-22T03:11:39.739Z,1004.17
2017-05-22T03:12:06.590Z,1004.24
2017-05-22T03:12:33.419Z,1004.11
2017-05-22T03:12:58.451Z,1004.12
2017-05-22T03:14:41.079Z,1004.20
2017-05-22T03:15:07.806Z,1004.16
2017-05-22T03:15:37.206Z,1004.18
2017-05-22T03:16:06.773Z,1004.03
2017-05-22T03:16:31.538Z,1004.20
2017-05-22T03:17:02.806Z,1004.14
2017-05-22T03:17:48.488Z,1003.92
2017-05-22T03:18:15.126Z,1004.07
2017-05-22T03:18:41.668Z,1004.07
2017-05-22T03:19:08.201Z,1004.14
2017-05-22T03:20:17.462Z,1004.03
2017-05-22T03:20:40.440Z,1003.98
2017-05-22T03:21:03.193Z,1004.03
2017-05-22T03:22:06.570Z,1004.11
2017-05-22T03:22:28.359Z,1004.04
2017-05-22T03:22:55.087Z,1004.07
2017-05-22T03:23:46.426Z,1004.12
2017-05-22T03:24:13.121Z,1004.34
2017-05-22T03:24:39.692Z,1004.16
2017-05-22T03:25:06.573Z,1004.04
2017-05-22T03:26:05.237Z,1004.00
2017-05-22T03:26:33.714Z,1003.98
2017-05-22T03:26:58.188Z,1004.21
2017-05-22T03:27:56.972Z,1004.19
2017-05-22T03:29:33.821Z,1004.10
2017-05-22T03:30:00.320Z,1004.00
2017-05-22T03:31:25.993Z,1004.02
2017-05-22T03:32:26.767Z,1004.03
2017-05-22T03:34:16.269Z,1004.06
2017-05-22T03:36:15.623Z,1004.08
2017-05-22T03:37:19.599Z,1003.96
2017-05-22T03:37:45.890Z,1004.21
2017-05-22T03:38:48.915Z,1004.19
2017-05-22T03:39:21.099Z,1003.99
2017-05-22T03:39:45.427Z,1004.00
2017-05-22T03:40:16.956Z,1003.99
2017-05-22T03:40:52.717Z,1004.14
2017-05-22T03:41:19.016Z,1004.08
2017-05-22T03:42:17.603Z,1004.14
2017-05-22T03:42:42.310Z,1004.27
2017-05-22T03:43:08.936Z,1004.09
2017-05-22T03:43:38.633Z,1004.06
2017-05-22T03:44:15.718Z,1004.10
2017-05-22T03:44:45.430Z,1004.25
2017-05-22T03:45:21.587Z,1004.19
2017-05-22T03:45:51.220Z,1004.13
2017-05-22T03:46:22.484Z,1004.18
2017-05-22T03:46:51.758Z,1004.05
2017-05-22T03:47:23.055Z,1004.06
2017-05-22T03:47:49.577Z,1004.03
2017-05-22T03:48:18.923Z,1004.12
2017-05-22T03:48:44.770Z,1004.16
2017-05-22T03:49:55.580Z,1004.16
2017-05-22T03:50:22.400Z,1004.04
2017-05-22T03:50:49.887Z,1004.14
2017-05-22T03:51:11.599Z,1004.16
2017-05-22T03:51:33.338Z,1004.07
2017-05-22T03:51:59.837Z,1004.06
2017-05-22T03:52:24.175Z,1004.20
2017-05-22T03:52:45.878Z,1004.04
2017-05-22T03:54:33.262Z,1004.16
2017-05-22T03:55:31.478Z,1004.01
2017-05-22T03:55:53.200Z,1004.11
2017-05-22T03:56:42.408Z,1004.08
2017-05-22T03:57:13.697Z,1004.17
2017-05-22T03:57:36.456Z,1004.01
2017-05-22T03:58:02.774Z,1004.14
2017-05-22T03:58:27.057Z,1004.31
2017-05-22T03:59:00.625Z,1004.20
2017-05-22T04:01:00.996Z,1004.15
2017-05-22T04:02:46.831Z,1004.07
2017-05-22T04:03:19.185Z,1004.19
2017-05-22T04:03:45.862Z,1004.03
2017-05-22T04:04:07.632Z,1004.12
2017-05-22T04:04:57.045Z,1004.10
2017-05-22T04:05:48.272Z,1004.08
2017-05-22T04:06:17.642Z,1004.21
2017-05-22T04:06:39.370Z,1004.12
2017-05-22T04:07:08.440Z,1004.17
2017-05-22T04:07:56.678Z,1004.20
2017-05-22T04:08:18.393Z,1004.18
2017-05-22T04:09:18.697Z,1004.00
2017-05-22T04:09:45.198Z,1004.05
2017-05-22T04:10:49.813Z,1004.17
2017-05-22T04:11:21.080Z,1004.16
2017-05-22T04:11:46.848Z,1004.02
2017-05-22T04:12:54.278Z,1004.23
2017-05-22T04:13:25.512Z,1004.19
2017-05-22T04:13:52.275Z,1004.11
2017-05-22T04:14:25.070Z,1004.14
2017-05-22T04:15:18.815Z,1004.07
2017-05-22T04:16:24.032Z,1004.05
2017-05-22T04:18:30.178Z,1004.04
2017-05-22T04:18:59.755Z,1004.14
2017-05-22T04:19:29.024Z,1004.06
2017-05-22T04:19:54.997Z,1003.97
2017-05-22T04:20:46.478Z,1004.18
2017-05-22T04:22:12.294Z,1004.03
2017-05-22T04:22:36.894Z,1004.13
2017-05-22T04:22:58.798Z,1004.01
2017-05-22T04:24:50.698Z,1004.11
2017-05-22T04:25:54.971Z,1004.05
2017-05-22T04:26:20.167Z,1004.12
2017-05-22T04:26:51.726Z,1004.11
2017-05-22T04:27:22.791Z,1004.04
2017-05-22T04:27:44.738Z,1004.03
2017-05-22T04:28:09.333Z,1004.17
2017-05-22T04:28:36.698Z,1004.08
2017-05-22T04:29:11.416Z,1004.10
2017-05-22T04:29:40.263Z,1004.23
2017-05-22T04:30:09.881Z,1004.17
2017-05-22T04:30:35.727Z,1004.12
2017-05-22T04:31:02.085Z,1003.90
2017-05-22T04:31:24.843Z,1004.24
2017-05-22T04:31:55.030Z,1004.12
2017-05-22T04:32:24.413Z,1004.11
2017-05-22T04:32:51.037Z,1004.19
2017-05-22T04:33:23.837Z,1004.24
2017-05-22T04:33:56.046Z,1004.15
2017-05-22T04:34:47.714Z,1004.24
2017-05-22T04:35:09.757Z,1004.07
2017-05-22T04:35:42.303Z,1004.30
2017-05-22T04:38:13.923Z,1004.12
2017-05-22T04:38:38.206Z,1004.16
2017-05-22T04:39:35.541Z,1004.00
2017-05-22T04:40:06.806Z,1004.19
2017-05-22T04:41:40.300Z,1003.96
2017-05-22T04:42:11.397Z,1004.09
2017-05-22T04:42:33.187Z,1004.25
2017-05-22T04:42:59.973Z,1004.14
2017-05-22T04:43:58.099Z,1004.14
2017-05-22T04:44:19.905Z,1004.18
2017-05-22T04:44:49.231Z,1004.17
2017-05-22T04:45:13.647Z,1004.15
2017-05-22T04:47:04.628Z,1004.16
2017-05-22T04:47:26.342Z,1004.12
2017-05-22T04:47:52.873Z,1004.02
2017-05-22T04:48:14.672Z,1004.02
2017-05-22T04:48:44.196Z,1004.15
2017-05-22T04:49:59.056Z,1004.11
2017-05-22T04:50:21.033Z,1004.08
2017-05-22T04:51:24.926Z,1004.13
2017-05-22T04:51:59.047Z,1004.00
2017-05-22T04:52:21.237Z,1004.07
2017-05-22T04:52:43.275Z,1004.00
2017-05-22T04:53:09.999Z,1003.99
2017-05-22T04:53:37.830Z,1004.04
2017-05-22T04:54:04.447Z,1004.02
2017-05-22T04:54:31.000Z,1004.09
2017-05-22T04:54:57.783Z,1003.92
2017-05-22T04:55:24.543Z,1004.16
2017-05-22T04:55:46.463Z,1004.18
2017-05-22T04:56:13.100Z,1004.16
2017-05-22T04:56:51.617Z,1003.97
2017-05-22T04:58:01.866Z,1004.09
2017-05-22T04:58:23.619Z,1004.09
2017-05-22T04:58:50.288Z,1004.11
2017-05-22T04:59:38.819Z,1004.01
2017-05-22T05:00:05.926Z,1004.17
2017-05-22T05:00:37.083Z,1004.01
2017-05-22T05:00:58.834Z,1003.97
2017-05-22T05:01:20.920Z,1003.98
2017-05-22T05:01:45.670Z,1004.07
2017-05-22T05:04:50.013Z,1004.04
2017-05-22T05:05:23.937Z,1004.08
2017-05-22T05:05:49.385Z,1004.05
2017-05-22T05:06:18.959Z,1004.06
2017-05-22T05:06:45.472Z,1004.00
2017-05-22T05:07:44.216Z,1004.04
2017-05-22T05:08:49.311Z,1004.07
2017-05-22T05:09:47.430Z,1004.05
2017-05-22T05:10:18.320Z,1004.02
2017-05-22T05:11:26.651Z,1003.96
2017-05-22T05:11:53.575Z,1004.02
2017-05-22T05:12:20.292Z,1003.97
2017-05-22T05:12:42.291Z,1004.02
2017-05-22T05:13:09.222Z,1004.08
2017-05-22T05:15:23.294Z,1004.02
2017-05-22T05:15:54.622Z,1004.02
2017-05-22T05:16:16.524Z,1004.03
2017-05-22T05:16:43.291Z,1004.00
2017-05-22T05:19:08.540Z,1004.10
2017-05-22T05:20:28.669Z,1004.13
2017-05-22T05:21:27.198Z,1004.04
2017-05-22T05:21:54.700Z,1004.11
2017-05-22T05:22:21.397Z,1004.10
2017-05-22T05:23:13.523Z,1004.07
2017-05-22T05:24:34.191Z,1004.08
2017-05-22T05:25:00.759Z,1004.05
2017-05-22T05:25:25.152Z,1003.99
2017-05-22T05:25:47.066Z,1004.02
2017-05-22T05:26:42.300Z,1004.04
2017-05-22T05:27:04.268Z,1004.02
2017-05-22T05:27:35.561Z,1004.03
2017-05-22T05:28:06.875Z,1004.16
2017-05-22T05:28:38.274Z,1004.00
2017-05-22T05:29:00.202Z,1004.07
2017-05-22T05:29:48.628Z,1004.06
2017-05-22T05:30:15.188Z,1004.02
2017-05-22T05:30:41.752Z,1004.08
2017-05-22T05:31:13.102Z,1004.07
2017-05-22T05:31:35.975Z,1004.05
2017-05-22T05:33:36.340Z,1004.10
2017-05-22T05:34:02.885Z,1003.95
2017-05-22T05:34:34.918Z,1004.06
2017-05-22T05:35:08.177Z,1004.15
2017-05-22T05:36:31.696Z,1004.22
2017-05-22T05:36:56.649Z,1004.16
2017-05-22T05:37:23.465Z,1004.24
2017-05-22T05:38:22.228Z,1004.13
2017-05-22T05:38:44.156Z,1004.20
2017-05-22T05:39:11.034Z,1004.13
2017-05-22T05:39:33.052Z,1004.21
2017-05-22T05:39:55.061Z,1004.15
2017-05-22T05:40:20.219Z,1004.10
2017-05-22T05:40:44.907Z,1004.14
2017-05-22T05:41:53.457Z,1004.14
2017-05-22T05:42:49.739Z,1004.21
2017-05-22T05:43:24.128Z,1004.15
2017-05-22T05:43:55.326Z,1004.17
2017-05-22T05:44:21.917Z,1004.22
2017-05-22T05:44:53.253Z,1004.34
2017-05-22T05:45:29.927Z,1004.34
2017-05-22T05:46:41.752Z,1004.19
2017-05-22T05:47:04.575Z,1004.16
2017-05-22T05:47:26.564Z,1004.10
2017-05-22T05:47:49.588Z,1004.10
2017-05-22T05:48:16.230Z,1004.16
2017-05-22T05:48:49.775Z,1004.22
2017-05-22T05:50:54.274Z,1004.18
2017-05-22T05:54:36.139Z,1004.15
2017-05-22T05:55:12.859Z,1004.16
2017-05-22T05:57:41.668Z,1004.19
2017-05-22T05:58:13.172Z,1004.04
2017-05-22T05:58:42.889Z,1004.09
2017-05-22T05:59:09.518Z,1004.09
2017-05-22T05:59:31.623Z,1004.02
2017-05-22T06:09:51.496Z,1004.04
2017-05-22T06:10:22.308Z,1004.06
2017-05-22T06:10:52.082Z,1004.02
2017-05-22T06:11:14.127Z,1004.03
2017-05-22T06:12:47.741Z,1004.01
2017-05-22T06:13:52.447Z,1004.04
2017-05-22T06:14:14.315Z,1004.06
2017-05-22T06:14:36.154Z,1004.09
2017-05-22T06:14:57.946Z,1004.13
2017-05-22T06:23:31.877Z,1004.19
2017-05-22T06:23:59.371Z,1004.08
2017-05-22T06:24:23.950Z,1004.20
2017-05-22T06:24:50.436Z,1004.19
2017-05-22T06:25:12.148Z,1004.10
2017-05-22T06:26:24.231Z,1004.26
2017-05-22T06:26:45.974Z,1004.05
2017-05-22T06:27:07.937Z,1004.17
2017-05-22T06:27:44.150Z,1004.27
2017-05-22T06:28:05.982Z,1004.15
2017-05-22T06:28:35.670Z,1004.09
2017-05-22T06:29:11.890Z,1004.16
2017-05-22T06:29:33.511Z,1004.14
2017-05-22T06:30:28.617Z,1004.27
2017-05-22T06:30:55.887Z,1004.10
2017-05-22T06:31:27.096Z,1004.15
2017-05-22T06:31:53.611Z,1004.08
2017-05-22T06:33:15.644Z,1004.13
2017-05-22T06:33:46.795Z,1004.16
2017-05-22T06:34:40.240Z,1004.12
2017-05-22T06:35:06.982Z,1004.18
2017-05-22T06:35:33.858Z,1004.13
2017-05-22T06:36:00.368Z,1004.16
2017-05-22T06:36:22.089Z,1004.28
2017-05-22T06:36:48.585Z,1004.25
2017-05-22T06:37:36.846Z,1004.14
2017-05-22T06:37:58.555Z,1004.11
2017-05-22T06:39:01.695Z,1004.18
2017-05-22T06:39:23.468Z,1004.17
2017-05-22T06:40:24.381Z,1004.15
2017-05-22T06:40:46.105Z,1004.18
2017-05-22T06:41:40.150Z,1004.14
2017-05-22T06:42:15.481Z,1004.22
2017-05-22T06:45:30.453Z,1004.23
2017-05-22T06:45:58.022Z,1004.22
2017-05-22T06:46:20.014Z,1004.23
2017-05-22T06:47:19.105Z,1004.20
2017-05-22T06:47:53.290Z,1004.19
2017-05-22T06:48:19.928Z,1004.19
2017-05-22T06:48:49.555Z,1004.19
2017-05-22T06:49:12.499Z,1004.15
2017-05-22T06:49:40.066Z,1004.26
2017-05-22T06:50:06.726Z,1004.20
2017-05-22T06:50:28.737Z,1004.18
2017-05-22T07:00:31.571Z,1004.23
2017-05-22T07:01:43.422Z,1004.14
2017-05-22T07:02:07.769Z,1004.16
2017-05-22T07:02:32.005Z,1004.21
2017-05-22T07:02:58.510Z,1004.19
2017-05-22T07:03:22.241Z,1004.23
2017-05-22T07:05:00.276Z,1004.24
2017-05-22T07:05:24.891Z,1004.26
2017-05-22T07:05:51.464Z,1004.26
2017-05-22T07:06:20.627Z,1004.18
2017-05-22T07:06:43.412Z,1004.30
2017-05-22T07:07:10.590Z,1004.22
2017-05-22T07:07:32.425Z,1004.26
2017-05-22T07:10:33.190Z,1004.22
2017-05-22T07:10:54.908Z,1004.23
2017-05-22T07:11:19.544Z,1004.26
2017-05-22T07:11:41.254Z,1004.35
2017-05-22T07:13:09.636Z,1004.32
2017-05-22T07:13:31.680Z,1004.29
2017-05-22T07:15:27.410Z,1004.34
2017-05-22T07:16:08.283Z,1004.24
2017-05-22T07:16:37.633Z,1004.22
2017-05-22T07:17:33.140Z,1004.21
2017-05-22T07:18:00.579Z,1004.27
2017-05-22T07:18:59.304Z,1004.21
2017-05-22T07:20:18.007Z,1004.38
2017-05-22T07:21:14.494Z,1004.21
2017-05-22T07:21:39.332Z,1004.24
2017-05-22T07:22:36.043Z,1004.11
2017-05-22T07:23:05.357Z,1004.17
2017-05-22T07:23:27.083Z,1004.28
2017-05-22T07:23:48.789Z,1004.21
2017-05-22T07:24:10.572Z,1004.28
2017-05-22T07:25:03.614Z,1004.17
2017-05-22T07:26:01.946Z,1004.28
2017-05-22T07:26:23.714Z,1004.20
2017-05-22T07:26:50.248Z,1004.27
2017-05-22T07:27:11.948Z,1004.28
2017-05-22T07:27:33.739Z,1004.24
2017-05-22T07:28:00.244Z,1004.37
2017-05-22T07:28:21.950Z,1004.28
2017-05-22T07:28:43.732Z,1004.22
2017-05-22T07:29:10.211Z,1004.19
2017-05-22T07:29:31.947Z,1004.30
2017-05-22T07:29:58.565Z,1004.25
2017-05-22T07:30:20.197Z,1004.20
2017-05-22T07:30:41.897Z,1004.32
2017-05-22T07:31:34.863Z,1004.29
2017-05-22T07:32:40.388Z,1004.19
2017-05-22T07:33:07.233Z,1004.31
2017-05-22T07:34:37.222Z,1004.32
2017-05-22T07:35:28.489Z,1004.21
2017-05-22T07:35:55.169Z,1004.18
2017-05-22T07:36:21.650Z,1004.35
2017-05-22T07:36:49.360Z,1004.24
2017-05-22T07:37:48.287Z,1004.16
2017-05-22T07:39:28.384Z,1004.37
2017-05-22T07:39:50.144Z,1004.26
2017-05-22T07:40:12.012Z,1004.23
2017-05-22T07:40:38.643Z,1004.24
2017-05-22T07:41:03.173Z,1004.26
2017-05-22T07:42:28.514Z,1004.25
2017-05-22T07:42:59.667Z,1004.37
2017-05-22T07:43:24.142Z,1004.32
2017-05-22T07:43:46.023Z,1004.28
2017-05-22T07:44:17.550Z,1004.16
2017-05-22T07:44:40.146Z,1004.18
2017-05-22T07:45:14.599Z,1004.20
2017-05-22T07:45:41.266Z,1004.13
2017-05-22T07:46:12.595Z,1004.18
2017-05-22T07:47:00.766Z,1004.23
2017-05-22T07:49:06.634Z,1004.17
2017-05-22T07:50:31.521Z,1004.17
2017-05-22T07:50:53.705Z,1004.25
2017-05-22T07:52:04.767Z,1004.07
2017-05-22T07:52:35.834Z,1004.17
2017-05-22T07:53:05.627Z,1004.21
2017-05-22T07:53:32.400Z,1004.25
2017-05-22T07:53:54.211Z,1004.16
2017-05-22T07:54:19.202Z,1004.21
2017-05-22T07:55:24.514Z,1004.13
2017-05-22T07:56:56.819Z,1004.20
2017-05-22T07:57:18.588Z,1004.20
2017-05-22T07:57:46.077Z,1004.20
2017-05-22T07:58:07.915Z,1004.13
2017-05-22T07:58:41.720Z,1004.12
2017-05-22T07:59:42.524Z,1004.15
2017-05-22T08:00:11.969Z,1004.22
2017-05-22T08:01:42.234Z,1004.25
2017-05-22T08:02:13.411Z,1004.05
2017-05-22T08:02:35.472Z,1004.07
2017-05-22T08:03:39.164Z,1004.09
2017-05-22T08:04:42.831Z,1004.06
2017-05-22T08:05:09.347Z,1004.08
2017-05-22T08:05:35.864Z,1004.05
2017-05-22T08:05:57.668Z,1004.09
2017-05-22T08:06:22.195Z,1004.07
2017-05-22T08:06:48.776Z,1004.07
2017-05-22T08:07:16.330Z,1004.09
2017-05-22T08:08:41.525Z,1004.01
2017-05-22T08:10:45.531Z,1004.07